sensor_id;sensor_type;location;lat;lon;timestamp;pressure;altitude;pressure_sealevel;temperature;humidity
49311;BME280;35177;45.900;5.946;2023-09-08T00:02:24;97850.88;;;17.00;86.32
49311;BME280;35177;45.900;5.946;2023-09-08T00:04:50;97850.94;;;16.59;85.97
49311;BME280;35177;45.900;5.946;2023-09-08T00:07:15;97847.69;;;16.55;85.53
49311;BME280;35177;45.900;5.946;2023-09-08T00:09:41;97851.69;;;16.61;85.09
49311;BME280;35177;45.900;5.946;2023-09-08T00:12:06;97850.03;;;16.49;86.58
49311;BME280;35177;45.900;5.946;2023-09-08T00:14:32;97849.50;;;16.55;86.79
49311;BME280;35177;45.900;5.946;2023-09-08T00:16:57;97848.00;;;16.41;87.99
49311;BME280;35177;45.900;5.946;2023-09-08T00:19:22;97847.56;;;16.57;86.69
49311;BME280;35177;45.900;5.946;2023-09-08T00:21:48;97849.38;;;16.77;88.03
49311;BME280;35177;45.900;5.946;2023-09-08T00:24:14;97847.84;;;16.54;87.05
49311;BME280;35177;45.900;5.946;2023-09-08T00:26:40;97846.13;;;16.53;87.74
49311;BME280;35177;45.900;5.946;2023-09-08T00:29:05;97842.53;;;16.63;87.47
49311;BME280;35177;45.900;5.946;2023-09-08T00:31:31;97849.63;;;16.74;85.17
49311;BME280;35177;45.900;5.946;2023-09-08T00:33:56;97841.75;;;16.73;85.83
49311;BME280;35177;45.900;5.946;2023-09-08T00:36:21;97852.09;;;16.66;87.86
49311;BME280;35177;45.900;5.946;2023-09-08T00:38:47;97856.56;;;16.56;86.79
49311;BME280;35177;45.900;5.946;2023-09-08T00:41:12;97845.94;;;16.65;85.73
49311;BME280;35177;45.900;5.946;2023-09-08T00:43:38;97852.28;;;16.74;85.54
49311;BME280;35177;45.900;5.946;2023-09-08T00:46:03;97858.81;;;16.81;84.57
49311;BME280;35177;45.900;5.946;2023-09-08T00:48:29;97851.69;;;16.61;86.29
49311;BME280;35177;45.900;5.946;2023-09-08T00:50:56;97854.50;;;16.69;87.59
49311;BME280;35177;45.900;5.946;2023-09-08T00:53:22;97847.75;;;16.65;86.96
49311;BME280;35177;45.900;5.946;2023-09-08T00:55:48;97849.72;;;16.63;87.45
49311;BME280;35177;45.900;5.946;2023-09-08T00:58:14;97849.16;;;16.69;86.17
49311;BME280;35177;45.900;5.946;2023-09-08T01:00:40;97847.28;;;16.39;86.75
49311;BME280;35177;45.900;5.946;2023-09-08T01:03:05;97849.88;;;16.30;87.83
49311;BME280;35177;45.900;5.946;2023-09-08T01:05:31;97854.97;;;16.33;86.25
49311;BME280;35177;45.900;5.946;2023-09-08T01:07:59;97857.69;;;16.22;86.52
49311;BME280;35177;45.900;5.946;2023-09-08T01:10:25;97852.09;;;16.25;87.13
49311;BME280;35177;45.900;5.946;2023-09-08T01:12:51;97855.22;;;16.09;86.28
49311;BME280;35177;45.900;5.946;2023-09-08T01:15:16;97857.38;;;16.15;87.29
49311;BME280;35177;45.900;5.946;2023-09-08T01:17:42;97853.19;;;16.02;86.81
49311;BME280;35177;45.900;5.946;2023-09-08T01:20:12;97856.38;;;15.95;89.38
49311;BME280;35177;45.900;5.946;2023-09-08T01:23:08;97856.00;;;16.21;89.61
49311;BME280;35177;45.900;5.946;2023-09-08T01:25:40;97853.53;;;16.29;88.95
49311;BME280;35177;45.900;5.946;2023-09-08T01:28:11;97848.00;;;16.21;89.84
49311;BME280;35177;45.900;5.946;2023-09-08T01:30:37;97852.16;;;16.14;88.60
49311;BME280;35177;45.900;5.946;2023-09-08T01:33:04;97850.78;;;15.98;88.72
49311;BME280;35177;45.900;5.946;2023-09-08T01:35:30;97855.19;;;15.57;88.67
49311;BME280;35177;45.900;5.946;2023-09-08T01:37:56;97860.69;;;15.76;87.66
49311;BME280;35177;45.900;5.946;2023-09-08T01:40:21;97851.50;;;15.69;88.27
49311;BME280;35177;45.900;5.946;2023-09-08T01:42:47;97850.63;;;15.79;87.64
49311;BME280;35177;45.900;5.946;2023-09-08T01:45:13;97852.06;;;15.83;86.76
49311;BME280;35177;45.900;5.946;2023-09-08T01:47:38;97856.69;;;15.81;87.97
49311;BME280;35177;45.900;5.946;2023-09-08T01:50:04;97862.69;;;15.94;88.64
49311;BME280;35177;45.900;5.946;2023-09-08T01:52:30;97857.16;;;15.86;87.95
49311;BME280;35177;45.900;5.946;2023-09-08T01:54:55;97852.91;;;15.84;89.11
49311;BME280;35177;45.900;5.946;2023-09-08T01:57:21;97849.44;;;15.72;89.56
49311;BME280;35177;45.900;5.946;2023-09-08T01:59:46;97866.13;;;15.85;89.47
49311;BME280;35177;45.900;5.946;2023-09-08T02:02:13;97857.06;;;15.77;89.37
49311;BME280;35177;45.900;5.946;2023-09-08T02:04:38;97860.50;;;15.57;90.65
49311;BME280;35177;45.900;5.946;2023-09-08T02:07:03;97861.03;;;15.51;90.60
49311;BME280;35177;45.900;5.946;2023-09-08T02:09:34;97860.13;;;15.61;90.72
49311;BME280;35177;45.900;5.946;2023-09-08T02:12:00;97862.72;;;15.52;90.39
49311;BME280;35177;45.900;5.946;2023-09-08T02:14:26;97852.78;;;15.31;91.63
49311;BME280;35177;45.900;5.946;2023-09-08T02:16:53;97855.56;;;15.52;90.71
49311;BME280;35177;45.900;5.946;2023-09-08T02:19:18;97865.25;;;15.53;89.21
49311;BME280;35177;45.900;5.946;2023-09-08T02:21:44;97859.41;;;15.59;88.14
49311;BME280;35177;45.900;5.946;2023-09-08T02:24:09;97866.47;;;15.60;88.33
49311;BME280;35177;45.900;5.946;2023-09-08T02:26:34;97863.31;;;15.55;88.46
49311;BME280;35177;45.900;5.946;2023-09-08T02:29:00;97870.59;;;15.53;88.93
49311;BME280;35177;45.900;5.946;2023-09-08T02:31:27;97870.34;;;15.56;88.44
49311;BME280;35177;45.900;5.946;2023-09-08T02:33:52;97868.88;;;15.52;87.90
49311;BME280;35177;45.900;5.946;2023-09-08T02:36:18;97877.31;;;15.68;87.52
49311;BME280;35177;45.900;5.946;2023-09-08T02:38:53;97862.13;;;15.37;88.69
49311;BME280;35177;45.900;5.946;2023-09-08T02:41:18;97868.66;;;15.55;91.57
49311;BME280;35177;45.900;5.946;2023-09-08T02:43:44;97874.22;;;15.63;89.95
49311;BME280;35177;45.900;5.946;2023-09-08T02:46:10;97869.03;;;15.51;89.24
49311;BME280;35177;45.900;5.946;2023-09-08T02:48:35;97871.06;;;15.58;89.34
49311;BME280;35177;45.900;5.946;2023-09-08T02:51:01;97873.69;;;15.69;89.37
49311;BME280;35177;45.900;5.946;2023-09-08T02:53:26;97868.88;;;15.63;88.44
49311;BME280;35177;45.900;5.946;2023-09-08T02:55:54;97870.69;;;15.63;87.05
49311;BME280;35177;45.900;5.946;2023-09-08T02:58:20;97868.13;;;15.61;87.22
49311;BME280;35177;45.900;5.946;2023-09-08T03:00:45;97872.44;;;15.30;88.30
49311;BME280;35177;45.900;5.946;2023-09-08T03:03:11;97876.31;;;15.38;87.09
49311;BME280;35177;45.900;5.946;2023-09-08T03:05:36;97867.44;;;15.37;88.43
49311;BME280;35177;45.900;5.946;2023-09-08T03:08:02;97875.81;;;15.32;88.17
49311;BME280;35177;45.900;5.946;2023-09-08T03:10:28;97872.78;;;15.37;89.11
49311;BME280;35177;45.900;5.946;2023-09-08T03:12:54;97881.03;;;15.45;88.95
49311;BME280;35177;45.900;5.946;2023-09-08T03:15:20;97883.56;;;15.58;86.82
49311;BME280;35177;45.900;5.946;2023-09-08T03:17:45;97886.34;;;15.34;87.63
49311;BME280;35177;45.900;5.946;2023-09-08T03:20:11;97887.81;;;15.27;91.11
49311;BME280;35177;45.900;5.946;2023-09-08T03:22:38;97884.78;;;15.31;88.80
49311;BME280;35177;45.900;5.946;2023-09-08T03:25:04;97887.59;;;15.19;89.76
49311;BME280;35177;45.900;5.946;2023-09-08T03:27:30;97889.78;;;15.14;90.24
49311;BME280;35177;45.900;5.946;2023-09-08T03:29:55;97889.28;;;15.20;89.80
49311;BME280;35177;45.900;5.946;2023-09-08T03:32:21;97883.09;;;15.19;90.55
49311;BME280;35177;45.900;5.946;2023-09-08T03:34:46;97884.69;;;15.11;90.98
49311;BME280;35177;45.900;5.946;2023-09-08T03:37:11;97882.75;;;15.13;91.96
49311;BME280;35177;45.900;5.946;2023-09-08T03:39:37;97886.38;;;15.23;90.84
49311;BME280;35177;45.900;5.946;2023-09-08T03:42:02;97877.63;;;15.32;88.97
49311;BME280;35177;45.900;5.946;2023-09-08T03:44:28;97872.81;;;15.26;90.26
49311;BME280;35177;45.900;5.946;2023-09-08T03:46:53;97881.53;;;15.06;89.93
49311;BME280;35177;45.900;5.946;2023-09-08T03:49:19;97881.53;;;15.06;90.87
49311;BME280;35177;45.900;5.946;2023-09-08T03:51:45;97875.59;;;15.13;88.47
49311;BME280;35177;45.900;5.946;2023-09-08T03:54:10;97880.69;;;14.94;88.65
49311;BME280;35177;45.900;5.946;2023-09-08T03:56:36;97884.91;;;15.08;88.43
49311;BME280;35177;45.900;5.946;2023-09-08T03:59:01;97874.03;;;15.11;87.65
49311;BME280;35177;45.900;5.946;2023-09-08T04:01:26;97878.25;;;15.13;87.34
49311;BME280;35177;45.900;5.946;2023-09-08T04:03:52;97877.69;;;15.10;86.96
49311;BME280;35177;45.900;5.946;2023-09-08T04:06:17;97877.44;;;14.80;87.95
49311;BME280;35177;45.900;5.946;2023-09-08T04:08:43;97882.75;;;15.02;89.89
49311;BME280;35177;45.900;5.946;2023-09-08T04:11:08;97880.44;;;15.08;90.63
49311;BME280;35177;45.900;5.946;2023-09-08T04:13:33;97877.66;;;14.88;87.99
49311;BME280;35177;45.900;5.946;2023-09-08T04:15:59;97878.66;;;14.87;89.12
49311;BME280;35177;45.900;5.946;2023-09-08T04:18:24;97877.53;;;14.78;88.68
49311;BME280;35177;45.900;5.946;2023-09-08T04:20:50;97878.16;;;14.82;89.14
49311;BME280;35177;45.900;5.946;2023-09-08T04:23:15;97886.63;;;14.65;90.15
49311;BME280;35177;45.900;5.946;2023-09-08T04:25:41;97890.22;;;14.63;90.97
49311;BME280;35177;45.900;5.946;2023-09-08T04:28:06;97886.63;;;14.65;92.20
49311;BME280;35177;45.900;5.946;2023-09-08T04:30:31;97892.44;;;14.70;90.56
49311;BME280;35177;45.900;5.946;2023-09-08T04:32:57;97896.53;;;14.74;89.43
49311;BME280;35177;45.900;5.946;2023-09-08T04:35:23;97891.84;;;14.88;89.35
49311;BME280;35177;45.900;5.946;2023-09-08T04:37:48;97894.13;;;14.71;88.17
49311;BME280;35177;45.900;5.946;2023-09-08T04:40:14;97889.78;;;14.81;88.51
49311;BME280;35177;45.900;5.946;2023-09-08T04:42:39;97892.44;;;14.81;89.90
49311;BME280;35177;45.900;5.946;2023-09-08T04:45:05;97895.81;;;14.83;89.64
49311;BME280;35177;45.900;5.946;2023-09-08T04:47:30;97898.97;;;14.88;89.45
49311;BME280;35177;45.900;5.946;2023-09-08T04:49:56;97896.69;;;14.72;87.82
49311;BME280;35177;45.900;5.946;2023-09-08T04:52:21;97901.25;;;14.59;88.52
49311;BME280;35177;45.900;5.946;2023-09-08T04:54:47;97913.59;;;14.60;88.87
49311;BME280;35177;45.900;5.946;2023-09-08T04:57:12;97912.75;;;14.71;89.56
49311;BME280;35177;45.900;5.946;2023-09-08T04:59:39;97908.56;;;14.68;90.11
49311;BME280;35177;45.900;5.946;2023-09-08T05:02:04;97910.84;;;14.73;88.66
49311;BME280;35177;45.900;5.946;2023-09-08T05:04:30;97910.81;;;14.61;88.29
49311;BME280;35177;45.900;5.946;2023-09-08T05:06:55;97916.19;;;14.73;89.20
49311;BME280;35177;45.900;5.946;2023-09-08T05:09:21;97916.06;;;14.74;90.45
49311;BME280;35177;45.900;5.946;2023-09-08T05:11:46;97909.38;;;14.69;89.73
49311;BME280;35177;45.900;5.946;2023-09-08T05:14:11;97916.28;;;14.60;89.50
49311;BME280;35177;45.900;5.946;2023-09-08T05:16:37;97913.47;;;14.61;91.28
49311;BME280;35177;45.900;5.946;2023-09-08T05:19:11;97919.41;;;14.54;91.57
49311;BME280;35177;45.900;5.946;2023-09-08T05:21:38;97916.03;;;14.63;90.21
49311;BME280;35177;45.900;5.946;2023-09-08T05:24:05;97918.00;;;15.05;92.86
49311;BME280;35177;45.900;5.946;2023-09-08T05:26:31;97924.09;;;16.47;87.07
49311;BME280;35177;45.900;5.946;2023-09-08T05:28:56;97928.91;;;16.94;82.32
49311;BME280;35177;45.900;5.946;2023-09-08T05:31:22;97929.13;;;17.02;81.81
49311;BME280;35177;45.900;5.946;2023-09-08T05:33:47;97926.25;;;17.24;80.11
49311;BME280;35177;45.900;5.946;2023-09-08T05:36:13;97927.84;;;17.36;79.90
49311;BME280;35177;45.900;5.946;2023-09-08T05:38:38;97937.25;;;17.61;79.34
49311;BME280;35177;45.900;5.946;2023-09-08T05:41:04;97940.28;;;17.87;78.31
49311;BME280;35177;45.900;5.946;2023-09-08T05:43:29;97938.75;;;18.03;77.63
49311;BME280;35177;45.900;5.946;2023-09-08T05:45:55;97940.16;;;18.08;77.43
49311;BME280;35177;45.900;5.946;2023-09-08T05:48:20;97948.50;;;18.24;76.76
49311;BME280;35177;45.900;5.946;2023-09-08T05:50:45;97944.69;;;18.26;77.40
49311;BME280;35177;45.900;5.946;2023-09-08T05:53:11;97947.28;;;18.47;77.10
49311;BME280;35177;45.900;5.946;2023-09-08T05:55:37;97952.91;;;18.53;77.14
49311;BME280;35177;45.900;5.946;2023-09-08T05:58:03;97945.94;;;18.03;79.88
49311;BME280;35177;45.900;5.946;2023-09-08T06:00:28;97948.94;;;18.38;78.33
49311;BME280;35177;45.900;5.946;2023-09-08T06:02:54;97942.19;;;18.53;78.21
49311;BME280;35177;45.900;5.946;2023-09-08T06:05:21;97948.63;;;18.22;80.50
49311;BME280;35177;45.900;5.946;2023-09-08T06:07:48;97953.13;;;18.12;81.34
49311;BME280;35177;45.900;5.946;2023-09-08T06:10:14;97948.03;;;17.90;82.75
49311;BME280;35177;45.900;5.946;2023-09-08T06:12:39;97948.09;;;17.60;84.33
49311;BME280;35177;45.900;5.946;2023-09-08T06:15:05;97948.66;;;17.23;87.27
49311;BME280;35177;45.900;5.946;2023-09-08T06:17:31;97954.59;;;17.36;86.63
49311;BME280;35177;45.900;5.946;2023-09-08T06:19:56;97957.59;;;17.83;85.16
49311;BME280;35177;45.900;5.946;2023-09-08T06:22:22;97957.06;;;17.98;84.18
49311;BME280;35177;45.900;5.946;2023-09-08T06:24:47;97960.53;;;18.48;81.57
49311;BME280;35177;45.900;5.946;2023-09-08T06:27:14;97964.72;;;18.80;80.18
49311;BME280;35177;45.900;5.946;2023-09-08T06:29:39;97966.84;;;18.86;79.74
49311;BME280;35177;45.900;5.946;2023-09-08T06:32:06;97964.59;;;18.91;79.28
49311;BME280;35177;45.900;5.946;2023-09-08T06:34:32;97958.63;;;18.97;78.47
49311;BME280;35177;45.900;5.946;2023-09-08T06:36:58;97962.72;;;19.01;78.56
49311;BME280;35177;45.900;5.946;2023-09-08T06:39:25;97953.84;;;18.91;80.21
49311;BME280;35177;45.900;5.946;2023-09-08T06:41:51;97958.19;;;18.05;83.96
49311;BME280;35177;45.900;5.946;2023-09-08T06:44:16;97968.69;;;18.66;81.57
49311;BME280;35177;45.900;5.946;2023-09-08T06:46:42;97963.38;;;18.47;83.57
49311;BME280;35177;45.900;5.946;2023-09-08T06:49:07;97969.53;;;18.86;80.56
49311;BME280;35177;45.900;5.946;2023-09-08T06:51:32;97961.84;;;19.10;78.56
49311;BME280;35177;45.900;5.946;2023-09-08T06:53:58;97958.03;;;19.12;77.83
49311;BME280;35177;45.900;5.946;2023-09-08T06:56:25;97954.53;;;19.12;77.96
49311;BME280;35177;45.900;5.946;2023-09-08T06:58:50;97961.53;;;19.22;77.64
49311;BME280;35177;45.900;5.946;2023-09-08T07:01:17;97964.31;;;19.40;77.49
49311;BME280;35177;45.900;5.946;2023-09-08T07:03:42;97958.66;;;19.43;76.66
49311;BME280;35177;45.900;5.946;2023-09-08T07:06:08;97970.09;;;18.80;83.60
49311;BME280;35177;45.900;5.946;2023-09-08T07:08:33;97964.91;;;19.24;79.23
49311;BME280;35177;45.900;5.946;2023-09-08T07:10:58;97964.03;;;19.43;77.59
49311;BME280;35177;45.900;5.946;2023-09-08T07:13:24;97955.13;;;19.33;80.64
49311;BME280;35177;45.900;5.946;2023-09-08T07:15:49;97968.25;;;19.46;76.97
49311;BME280;35177;45.900;5.946;2023-09-08T07:18:15;97959.16;;;19.56;79.11
49311;BME280;35177;45.900;5.946;2023-09-08T07:20:40;97954.41;;;19.50;79.32
49311;BME280;35177;45.900;5.946;2023-09-08T07:23:06;97954.59;;;19.66;76.64
49311;BME280;35177;45.900;5.946;2023-09-08T07:25:31;97953.41;;;19.51;80.46
49311;BME280;35177;45.900;5.946;2023-09-08T07:27:57;97953.53;;;19.50;76.38
49311;BME280;35177;45.900;5.946;2023-09-08T07:30:22;97956.59;;;19.64;76.71
49311;BME280;35177;45.900;5.946;2023-09-08T07:32:48;97951.22;;;19.64;76.02
49311;BME280;35177;45.900;5.946;2023-09-08T07:35:14;97955.75;;;19.64;76.38
49311;BME280;35177;45.900;5.946;2023-09-08T07:37:41;97951.56;;;19.52;78.51
49311;BME280;35177;45.900;5.946;2023-09-08T07:40:09;97952.69;;;19.49;77.03
49311;BME280;35177;45.900;5.946;2023-09-08T07:42:35;97955.78;;;19.54;80.28
49311;BME280;35177;45.900;5.946;2023-09-08T07:45:01;97953.41;;;19.51;80.11
49311;BME280;35177;45.900;5.946;2023-09-08T07:47:26;97962.13;;;19.63;80.47
49311;BME280;35177;45.900;5.946;2023-09-08T07:49:52;97958.59;;;19.62;80.40
49311;BME280;35177;45.900;5.946;2023-09-08T07:52:17;97960.72;;;19.59;78.45
49311;BME280;35177;45.900;5.946;2023-09-08T07:54:42;97959.13;;;19.66;79.29
49311;BME280;35177;45.900;5.946;2023-09-08T07:57:08;97964.59;;;19.74;80.78
49311;BME280;35177;45.900;5.946;2023-09-08T07:59:33;97961.06;;;19.73;78.25
49311;BME280;35177;45.900;5.946;2023-09-08T08:01:59;97961.94;;;19.91;80.60
49311;BME280;35177;45.900;5.946;2023-09-08T08:04:24;97958.44;;;19.91;80.54
49311;BME280;35177;45.900;5.946;2023-09-08T08:06:50;97957.66;;;19.98;80.13
49311;BME280;35177;45.900;5.946;2023-09-08T08:09:15;97956.53;;;20.01;80.76
49311;BME280;35177;45.900;5.946;2023-09-08T08:11:41;97958.50;;;20.26;80.67
49311;BME280;35177;45.900;5.946;2023-09-08T08:14:07;97958.28;;;20.55;79.39
49311;BME280;35177;45.900;5.946;2023-09-08T08:16:32;97956.69;;;20.44;78.16
49311;BME280;35177;45.900;5.946;2023-09-08T08:18:58;97961.78;;;20.73;77.35
49311;BME280;35177;45.900;5.946;2023-09-08T08:21:24;97961.03;;;20.45;76.34
49311;BME280;35177;45.900;5.946;2023-09-08T08:23:50;97951.38;;;20.35;77.09
49311;BME280;35177;45.900;5.946;2023-09-08T08:26:16;97953.06;;;20.53;76.86
49311;BME280;35177;45.900;5.946;2023-09-08T08:28:41;97951.81;;;20.48;77.47
49311;BME280;35177;45.900;5.946;2023-09-08T08:31:07;97955.06;;;20.34;74.80
49311;BME280;35177;45.900;5.946;2023-09-08T08:33:32;97951.81;;;20.48;74.48
49311;BME280;35177;45.900;5.946;2023-09-08T08:35:58;97951.72;;;20.75;74.91
49311;BME280;35177;45.900;5.946;2023-09-08T08:38:23;97946.53;;;20.99;75.16
49311;BME280;35177;45.900;5.946;2023-09-08T08:40:48;97947.91;;;21.03;72.48
49311;BME280;35177;45.900;5.946;2023-09-08T08:43:14;97945.00;;;20.97;73.24
49311;BME280;35177;45.900;5.946;2023-09-08T08:45:41;97938.97;;;21.03;72.33
49311;BME280;35177;45.900;5.946;2023-09-08T08:48:08;97944.25;;;21.04;71.71
49311;BME280;35177;45.900;5.946;2023-09-08T08:50:35;97938.06;;;21.12;72.24
49311;BME280;35177;45.900;5.946;2023-09-08T08:53:01;97934.28;;;21.22;73.23
49311;BME280;35177;45.900;5.946;2023-09-08T08:55:30;97937.34;;;21.35;72.37
49311;BME280;35177;45.900;5.946;2023-09-08T08:58:05;97934.06;;;21.50;71.78
49311;BME280;35177;45.900;5.946;2023-09-08T09:00:34;97937.81;;;21.57;70.58
49311;BME280;35177;45.900;5.946;2023-09-08T09:03:01;97933.03;;;21.42;71.89
49311;BME280;35177;45.900;5.946;2023-09-08T09:05:27;97927.09;;;21.65;72.09
49311;BME280;35177;45.900;5.946;2023-09-08T09:07:53;97932.50;;;22.23;69.06
49311;BME280;35177;45.900;5.946;2023-09-08T09:10:20;97933.66;;;22.04;68.99
49311;BME280;35177;45.900;5.946;2023-09-08T09:12:46;97930.41;;;22.00;68.17
49311;BME280;35177;45.900;5.946;2023-09-08T09:15:12;97927.41;;;22.03;69.45
49311;BME280;35177;45.900;5.946;2023-09-08T09:17:37;97933.25;;;22.73;67.13
49311;BME280;35177;45.900;5.946;2023-09-08T09:22:43;97925.78;;;22.43;67.94
49311;BME280;35177;45.900;5.946;2023-09-08T09:25:09;97924.28;;;22.56;66.56
49311;BME280;35177;45.900;5.946;2023-09-08T09:27:36;97919.88;;;22.47;68.67
49311;BME280;35177;45.900;5.946;2023-09-08T09:30:03;97916.19;;;22.48;68.98
49311;BME280;35177;45.900;5.946;2023-09-08T09:32:29;97917.16;;;23.20;65.85
49311;BME280;35177;45.900;5.946;2023-09-08T09:34:57;97912.75;;;23.43;64.57
49311;BME280;35177;45.900;5.946;2023-09-08T09:37:23;97906.00;;;23.31;65.59
49311;BME280;35177;45.900;5.946;2023-09-08T09:39:50;97907.38;;;23.27;63.05
49311;BME280;35177;45.900;5.946;2023-09-08T09:42:17;97910.69;;;23.53;62.07
49311;BME280;35177;45.900;5.946;2023-09-08T09:44:42;97911.97;;;23.65;62.33
49311;BME280;35177;45.900;5.946;2023-09-08T09:47:08;97903.97;;;23.80;63.14
49311;BME280;35177;45.900;5.946;2023-09-08T09:49:45;97907.50;;;24.19;62.64
49311;BME280;35177;45.900;5.946;2023-09-08T09:52:19;97897.28;;;23.98;59.30
49311;BME280;35177;45.900;5.946;2023-09-08T09:54:45;97892.13;;;24.20;59.48
49311;BME280;35177;45.900;5.946;2023-09-08T09:57:14;97898.13;;;24.75;58.20
49311;BME280;35177;45.900;5.946;2023-09-08T09:59:42;97895.41;;;24.75;55.88
49311;BME280;35177;45.900;5.946;2023-09-08T10:02:14;97891.16;;;24.80;56.19
49311;BME280;35177;45.900;5.946;2023-09-08T10:04:41;97889.47;;;24.79;56.66
49311;BME280;35177;45.900;5.946;2023-09-08T10:07:07;97879.72;;;25.08;56.51
49311;BME280;35177;45.900;5.946;2023-09-08T10:09:33;97881.41;;;25.67;56.17
49311;BME280;35177;45.900;5.946;2023-09-08T10:12:03;97882.47;;;25.81;53.69
49311;BME280;35177;45.900;5.946;2023-09-08T10:14:30;97879.09;;;25.79;52.71
49311;BME280;35177;45.900;5.946;2023-09-08T10:16:59;97868.72;;;25.68;54.43
49311;BME280;35177;45.900;5.946;2023-09-08T10:19:25;97874.69;;;25.78;52.06
49311;BME280;35177;45.900;5.946;2023-09-08T10:21:53;97865.78;;;25.84;53.04
49311;BME280;35177;45.900;5.946;2023-09-08T10:24:24;97874.03;;;25.76;53.93
49311;BME280;35177;45.900;5.946;2023-09-08T10:29:22;97869.38;;;26.41;48.45
49311;BME280;35177;45.900;5.946;2023-09-08T10:31:48;97870.53;;;26.74;48.62
49311;BME280;35177;45.900;5.946;2023-09-08T10:34:14;97861.34;;;26.97;47.41
49311;BME280;35177;45.900;5.946;2023-09-08T10:36:40;97863.34;;;26.88;47.02
49311;BME280;35177;45.900;5.946;2023-09-08T10:39:31;97862.41;;;26.74;48.51
49311;BME280;35177;45.900;5.946;2023-09-08T10:47:12;97852.97;;;27.32;49.53
49311;BME280;35177;45.900;5.946;2023-09-08T10:49:38;97851.44;;;27.51;50.46
49311;BME280;35177;45.900;5.946;2023-09-08T10:52:08;97852.03;;;27.40;49.45
49311;BME280;35177;45.900;5.946;2023-09-08T10:54:43;97849.00;;;26.94;50.59
49311;BME280;35177;45.900;5.946;2023-09-08T10:57:16;97843.97;;;26.98;49.89
49311;BME280;35177;45.900;5.946;2023-09-08T11:00:01;97848.59;;;27.66;46.23
49311;BME280;35177;45.900;5.946;2023-09-08T11:02:41;97847.22;;;27.89;44.64
49311;BME280;35177;45.900;5.946;2023-09-08T11:07:35;97845.75;;;27.87;45.55
49311;BME280;35177;45.900;5.946;2023-09-08T11:10:01;97839.88;;;27.83;44.84
49311;BME280;35177;45.900;5.946;2023-09-08T11:12:29;97838.00;;;27.84;46.56
49311;BME280;35177;45.900;5.946;2023-09-08T11:14:55;97836.75;;;27.86;46.24
49311;BME280;35177;45.900;5.946;2023-09-08T11:17:25;97828.19;;;27.83;45.22
49311;BME280;35177;45.900;5.946;2023-09-08T11:19:51;97831.25;;;28.27;47.01
49311;BME280;35177;45.900;5.946;2023-09-08T11:22:17;97824.38;;;28.57;44.78
49311;BME280;35177;45.900;5.946;2023-09-08T11:24:43;97819.34;;;28.54;42.55
49311;BME280;35177;45.900;5.946;2023-09-08T11:27:10;97815.34;;;29.09;43.35
49311;BME280;35177;45.900;5.946;2023-09-08T11:29:36;97809.94;;;28.76;42.91
49311;BME280;35177;45.900;5.946;2023-09-08T11:32:02;97816.19;;;28.51;41.63
49311;BME280;35177;45.900;5.946;2023-09-08T11:34:29;97812.63;;;28.44;40.30
49311;BME280;35177;45.900;5.946;2023-09-08T11:36:54;97805.19;;;27.98;42.78
49311;BME280;35177;45.900;5.946;2023-09-08T11:39:23;97820.59;;;28.52;43.91
49311;BME280;35177;45.900;5.946;2023-09-08T11:41:50;97809.13;;;28.76;41.63
49311;BME280;35177;45.900;5.946;2023-09-08T11:44:17;97804.06;;;28.86;40.97
49311;BME280;35177;45.900;5.946;2023-09-08T11:46:43;97807.78;;;28.39;41.03
49311;BME280;35177;45.900;5.946;2023-09-08T11:49:09;97803.16;;;28.13;40.68
49311;BME280;35177;45.900;5.946;2023-09-08T11:51:34;97805.28;;;28.44;41.39
49311;BME280;35177;45.900;5.946;2023-09-08T11:54:00;97804.63;;;29.27;38.88
49311;BME280;35177;45.900;5.946;2023-09-08T11:56:26;97810.22;;;29.52;37.55
49311;BME280;35177;45.900;5.946;2023-09-08T11:58:52;97799.09;;;29.53;38.79
49311;BME280;35177;45.900;5.946;2023-09-08T12:01:18;97797.31;;;29.08;38.97
49311;BME280;35177;45.900;5.946;2023-09-08T12:03:54;97796.94;;;28.72;38.45
49311;BME280;35177;45.900;5.946;2023-09-08T12:06:20;97793.19;;;28.60;39.62
49311;BME280;35177;45.900;5.946;2023-09-08T12:08:48;97782.88;;;28.88;38.59
49311;BME280;35177;45.900;5.946;2023-09-08T12:11:14;97787.06;;;28.97;40.67
49311;BME280;35177;45.900;5.946;2023-09-08T12:13:39;97781.97;;;29.33;40.27
49311;BME280;35177;45.900;5.946;2023-09-08T12:16:18;97783.88;;;29.07;40.47
49311;BME280;35177;45.900;5.946;2023-09-08T12:18:44;97770.09;;;29.02;39.36
49311;BME280;35177;45.900;5.946;2023-09-08T12:21:11;97771.72;;;29.29;39.51
49311;BME280;35177;45.900;5.946;2023-09-08T12:23:47;97767.53;;;29.13;39.45
49311;BME280;35177;45.900;5.946;2023-09-08T12:26:14;97770.09;;;28.95;40.27
49311;BME280;35177;45.900;5.946;2023-09-08T12:28:42;97757.19;;;29.41;36.82
49311;BME280;35177;45.900;5.946;2023-09-08T12:31:08;97760.06;;;30.04;37.03
49311;BME280;35177;45.900;5.946;2023-09-08T12:33:35;97756.84;;;30.07;35.85
49311;BME280;35177;45.900;5.946;2023-09-08T12:36:10;97754.06;;;30.13;37.29
49311;BME280;35177;45.900;5.946;2023-09-08T12:38:36;97745.94;;;29.69;36.45
49311;BME280;35177;45.900;5.946;2023-09-08T12:41:02;97752.72;;;29.53;38.23
49311;BME280;35177;45.900;5.946;2023-09-08T12:43:27;97750.53;;;29.82;38.42
49311;BME280;35177;45.900;5.946;2023-09-08T12:45:53;97736.91;;;30.06;36.36
49311;BME280;35177;45.900;5.946;2023-09-08T12:48:18;97733.50;;;30.11;36.52
49311;BME280;35177;45.900;5.946;2023-09-08T12:50:44;97736.75;;;30.33;36.64
49311;BME280;35177;45.900;5.946;2023-09-08T12:53:09;97739.34;;;29.90;37.21
49311;BME280;35177;45.900;5.946;2023-09-08T12:55:34;97733.53;;;29.80;39.18
49311;BME280;35177;45.900;5.946;2023-09-08T12:58:00;97733.78;;;29.65;36.63
49311;BME280;35177;45.900;5.946;2023-09-08T13:00:25;97733.97;;;29.77;37.61
49311;BME280;35177;45.900;5.946;2023-09-08T13:02:52;97724.91;;;29.83;35.59
49311;BME280;35177;45.900;5.946;2023-09-08T13:05:17;97725.06;;;30.19;37.38
49311;BME280;35177;45.900;5.946;2023-09-08T13:07:43;97722.78;;;30.47;35.43
49311;BME280;35177;45.900;5.946;2023-09-08T13:10:09;97718.97;;;30.48;35.30